Terminal Aerodrome Forecast
Issued by NWS Chicago, IL

Home | Current Version | Previous Version | Graphics & Text | Print | Product List | Glossary On
Versions: 1 2 3 4 5 6 7 8 9 10 11 12 13 14 15 16 17 18 19 20 21 22 23 24 25 26 27 28
583
FTUS43 KLOT 280303 AAD
TAFRFD
TAF AMD
KRFD 280303Z 2803/2824 VRB03KT P6SM VCTS SCT050CB BKN250
      TEMPO 2803/2804 2SM TSRA SCT040CB BKN080
     FM280400 VRB03KT P6SM SCT050 SCT250
     FM280800 VRB03KT 3SM BR FEW060
     FM281200 03004KT P6SM SCT060
     FM281500 07007KT P6SM VCSH SCT030 BKN080 PROB30 2816/2820 4SM
      -TSRA BKN030CB=

USA.gov is the U.S. government's official web portal to all federal, state and local government web resources and services.